createdAt,value
2023-03-01T00:04:37.055Z,60.49
2023-03-01T00:09:41.292Z,60.55
2023-03-01T00:14:44.564Z,60.76
2023-03-01T00:19:47.801Z,60.87
2023-03-01T00:31:57.317Z,60.72
2023-03-01T00:37:06.418Z,60.86
2023-03-01T00:42:09.777Z,60.75
2023-03-01T00:47:13.094Z,60.90
2023-03-01T00:52:16.356Z,60.89
2023-03-01T00:57:20.102Z,60.74
2023-03-01T01:02:24.442Z,60.49
2023-03-01T01:07:28.077Z,60.67
2023-03-01T01:12:31.691Z,60.82
2023-03-01T01:17:35.016Z,60.79
2023-03-01T01:22:39.082Z,60.91
2023-03-01T01:27:42.470Z,60.82
2023-03-01T01:32:45.960Z,61.04
2023-03-01T01:37:49.308Z,61.06
2023-03-01T01:42:53.074Z,61.19
2023-03-01T01:48:02.056Z,60.94
2023-03-01T01:53:13.851Z,61.25
2023-03-01T01:58:20.509Z,61.30
2023-03-01T02:03:34.535Z,61.29
2023-03-01T02:08:42.479Z,61.41
2023-03-01T02:13:46.338Z,61.65
2023-03-01T02:18:51.465Z,61.68
2023-03-01T02:23:56.919Z,61.60
2023-03-01T02:29:00.535Z,61.61
2023-03-01T02:34:05.777Z,61.84
2023-03-01T02:39:15.501Z,61.89
2023-03-01T02:44:19.042Z,61.86
2023-03-01T02:49:25.999Z,62.02
2023-03-01T02:54:40.124Z,62.01
2023-03-01T02:59:44.509Z,62.09
2023-03-01T03:04:48.537Z,61.89
2023-03-01T03:09:52.056Z,62.02
2023-03-01T03:14:55.453Z,62.14
2023-03-01T03:19:58.890Z,62.18
2023-03-01T03:25:02.440Z,62.25
2023-03-01T03:30:13.486Z,62.30
2023-03-01T03:35:16.824Z,62.13
2023-03-01T03:40:20.141Z,62.07
2023-03-01T03:45:23.849Z,62.18
2023-03-01T03:50:27.521Z,62.35
2023-03-01T03:55:31.941Z,62.32
2023-03-01T04:00:37.877Z,62.20
2023-03-01T04:05:42.510Z,62.25
2023-03-01T04:10:48.982Z,62.23
2023-03-01T04:15:54.586Z,62.37
2023-03-01T04:20:57.899Z,62.59
2023-03-01T04:26:00.993Z,62.57
2023-03-01T04:31:14.326Z,62.59
2023-03-01T04:36:18.895Z,62.87
2023-03-01T04:41:23.813Z,62.95
2023-03-01T04:46:27.651Z,62.71
2023-03-01T04:51:30.984Z,62.70
2023-03-01T04:56:34.142Z,62.70
2023-03-01T05:01:38.216Z,62.84
2023-03-01T05:06:41.689Z,63.05
2023-03-01T05:11:45.714Z,63.34
2023-03-01T05:16:49.235Z,62.87
2023-03-01T05:22:07.939Z,62.77
2023-03-01T05:27:11.172Z,62.75
2023-03-01T05:32:16.962Z,62.68
2023-03-01T05:37:20.694Z,62.60
2023-03-01T05:42:24.078Z,63.13
2023-03-01T05:47:27.453Z,62.85
2023-03-01T05:52:30.566Z,62.78
2023-03-01T05:57:33.902Z,62.84
2023-03-01T06:02:37.308Z,63.06
2023-03-01T06:07:41.040Z,62.98
2023-03-01T06:12:44.928Z,63.06
2023-03-01T06:17:48.790Z,63.57
2023-03-01T06:22:52.872Z,63.38
2023-03-01T06:27:56.343Z,63.17
2023-03-01T06:33:02.589Z,63.33
2023-03-01T06:38:06.544Z,63.43
2023-03-01T06:43:09.886Z,63.61
2023-03-01T06:48:13.176Z,63.61
2023-03-01T06:53:16.498Z,63.46
2023-03-01T06:58:19.808Z,63.61
2023-03-01T07:03:23.880Z,63.75
2023-03-01T07:08:27.839Z,62.73
2023-03-01T07:13:31.308Z,62.24
2023-03-01T07:18:34.978Z,61.47
2023-03-01T07:23:38.654Z,60.95
2023-03-01T07:28:42.085Z,60.81
2023-03-01T07:33:45.432Z,60.96
2023-03-01T07:38:48.741Z,60.05
2023-03-01T07:43:51.835Z,59.60
2023-03-01T07:48:54.989Z,59.07
2023-03-01T07:53:58.177Z,59.24
2023-03-01T07:59:01.726Z,58.76
2023-03-01T08:04:08.263Z,58.68
2023-03-01T08:09:11.567Z,58.81
2023-03-01T08:14:14.914Z,58.89
2023-03-01T08:19:18.504Z,58.89
2023-03-01T08:24:22.080Z,58.68
2023-03-01T08:29:28.281Z,58.54
2023-03-01T08:34:32.704Z,58.19
2023-03-01T08:39:36.092Z,57.60
2023-03-01T08:44:39.387Z,57.20
2023-03-01T08:49:42.737Z,55.03
2023-03-01T08:54:46.334Z,53.65
2023-03-01T08:59:49.547Z,54.40
2023-03-01T09:04:52.989Z,53.77
2023-03-01T09:09:56.421Z,54.31
2023-03-01T09:15:05.135Z,54.56
2023-03-01T09:20:10.252Z,54.37
2023-03-01T09:25:21.665Z,53.36
2023-03-01T09:30:25.715Z,51.85
2023-03-01T09:35:29.260Z,51.54
2023-03-01T09:40:32.589Z,51.78
2023-03-01T09:45:40.891Z,51.20
2023-03-01T09:50:47.886Z,50.87
2023-03-01T09:56:01.283Z,50.66
2023-03-01T10:01:24.769Z,49.87
2023-03-01T10:06:34.917Z,49.45
2023-03-01T10:11:42.956Z,49.21
2023-03-01T10:17:00.114Z,47.42
2023-03-01T10:22:23.255Z,46.48
2023-03-01T10:27:35.963Z,46.36
2023-03-01T10:32:39.448Z,45.56
2023-03-01T10:37:59.058Z,44.42
2023-03-01T10:43:05.536Z,44.73
2023-03-01T10:48:25.712Z,45.90
2023-03-01T10:53:34.638Z,45.54
2023-03-01T10:58:39.897Z,45.53
2023-03-01T11:03:43.322Z,45.15
2023-03-01T11:08:49.150Z,44.70
2023-03-01T11:14:10.517Z,44.90
2023-03-01T11:19:22.519Z,44.76
2023-03-01T11:24:38.430Z,44.37
2023-03-01T11:29:49.359Z,43.56
2023-03-01T11:35:00.603Z,43.76
2023-03-01T11:40:13.371Z,43.50
2023-03-01T11:45:16.930Z,43.42
2023-03-01T11:50:36.349Z,42.95
2023-03-01T11:56:17.164Z,42.39
2023-03-01T12:01:42.549Z,41.54
2023-03-01T12:07:02.221Z,40.99
2023-03-01T12:12:27.204Z,39.84
2023-03-01T12:17:39.789Z,39.26
2023-03-01T12:22:55.253Z,38.65
2023-03-01T12:28:23.911Z,37.83
2023-03-01T12:33:51.796Z,38.09
2023-03-01T12:39:20.313Z,37.60
2023-03-01T12:44:48.209Z,37.16
2023-03-01T12:49:59.430Z,37.19
2023-03-01T12:55:08.061Z,37.21
2023-03-01T13:00:29.945Z,37.26
2023-03-01T13:05:43.465Z,36.92
2023-03-01T13:11:17.826Z,37.67
2023-03-01T13:16:40.656Z,37.09
2023-03-01T13:21:46.458Z,37.33
2023-03-01T13:27:08.391Z,36.88
2023-03-01T13:32:48.810Z,35.98
2023-03-01T13:37:52.232Z,35.83
2023-03-01T13:43:05.226Z,35.43
2023-03-01T13:48:25.513Z,35.19
2023-03-01T13:53:34.889Z,35.36
2023-03-01T13:58:56.469Z,35.51
2023-03-01T14:04:00.842Z,35.71
2023-03-01T14:09:09.781Z,35.79
2023-03-01T14:14:22.824Z,36.38
2023-03-01T14:19:33.482Z,35.95
2023-03-01T14:24:41.263Z,36.81
2023-03-01T14:29:45.457Z,36.93
2023-03-01T14:34:51.614Z,36.65
2023-03-01T14:39:56.484Z,36.64
2023-03-01T14:45:02.812Z,37.15
2023-03-01T14:50:22.643Z,37.95
2023-03-01T14:55:46.011Z,37.40
2023-03-01T15:01:06.094Z,37.00
2023-03-01T15:06:10.355Z,37.47
2023-03-01T15:11:26.100Z,38.01
2023-03-01T15:16:35.032Z,37.86
2023-03-01T15:21:40.048Z,38.36
2023-03-01T15:26:47.917Z,38.50
2023-03-01T15:32:06.294Z,38.39
2023-03-01T15:37:54.894Z,38.26
2023-03-01T15:43:19.033Z,38.46
2023-03-01T15:48:22.405Z,38.51
2023-03-01T15:53:26.209Z,38.88
2023-03-01T15:58:29.803Z,38.40
2023-03-01T16:03:33.099Z,38.65
2023-03-01T16:08:36.230Z,39.06
2023-03-01T16:13:39.363Z,39.28
2023-03-01T16:18:47.006Z,38.97
2023-03-01T16:31:33.356Z,39.29
2023-03-01T16:36:37.855Z,39.57
2023-03-01T16:41:41.346Z,39.83
2023-03-01T16:46:44.792Z,40.07
2023-03-01T16:51:48.254Z,40.20
2023-03-01T16:56:51.612Z,40.87
2023-03-01T17:01:54.809Z,41.02
2023-03-01T17:06:57.907Z,41.94
2023-03-01T17:12:01.236Z,42.13
2023-03-01T17:17:04.507Z,42.70
2023-03-01T17:22:07.957Z,43.34
2023-03-01T17:27:13.379Z,43.42
2023-03-01T17:32:16.748Z,43.39
2023-03-01T17:37:21.023Z,43.93
2023-03-01T17:42:24.771Z,44.53
2023-03-01T17:47:28.226Z,45.10
2023-03-01T17:52:31.783Z,45.53
2023-03-01T17:57:35.510Z,45.81
2023-03-01T18:02:39.070Z,46.11
2023-03-01T18:07:42.527Z,46.90
2023-03-01T18:12:45.725Z,48.27
2023-03-01T18:17:49.426Z,47.79
2023-03-01T18:22:53.012Z,48.20
2023-03-01T18:27:56.217Z,48.20
2023-03-01T18:32:59.329Z,48.28
2023-03-01T18:38:02.770Z,48.42
2023-03-01T18:43:06.029Z,48.84
2023-03-01T18:48:09.572Z,49.47
2023-03-01T18:53:12.830Z,50.01
2023-03-01T18:58:16.155Z,50.37
2023-03-01T19:03:19.503Z,50.59
2023-03-01T19:08:23.425Z,50.98
2023-03-01T19:13:27.551Z,50.85
2023-03-01T19:18:30.880Z,51.01
2023-03-01T19:23:35.366Z,51.65
2023-03-01T19:28:39.774Z,52.16
2023-03-01T19:33:43.932Z,52.34
2023-03-01T19:38:48.893Z,53.14
2023-03-01T19:43:52.409Z,53.37
2023-03-01T19:48:55.821Z,54.39
2023-03-01T19:53:59.365Z,54.10
2023-03-01T19:59:04.838Z,53.92
2023-03-01T20:04:10.032Z,54.03
2023-03-01T20:09:21.394Z,55.25
2023-03-01T20:14:25.284Z,54.39
2023-03-01T20:19:28.685Z,54.33
2023-03-01T20:24:32.269Z,54.99
2023-03-01T20:29:36.262Z,55.40
2023-03-01T20:34:39.588Z,54.69
2023-03-01T20:39:42.937Z,54.88
2023-03-01T20:44:46.649Z,54.98
2023-03-01T20:49:53.187Z,55.48
2023-03-01T20:54:56.392Z,55.88
2023-03-01T20:59:59.599Z,56.03
2023-03-01T21:05:03.157Z,56.03
2023-03-01T21:10:07.773Z,56.30
2023-03-01T21:15:15.110Z,56.63
2023-03-01T21:20:24.759Z,56.89
2023-03-01T21:25:35.075Z,57.07
2023-03-01T21:30:38.627Z,56.95
2023-03-01T21:35:41.988Z,56.99
2023-03-01T21:40:45.218Z,57.30
2023-03-01T21:45:49.128Z,57.31
2023-03-01T21:50:57.249Z,57.44
2023-03-01T21:56:01.793Z,57.63
2023-03-01T22:01:10.581Z,57.86
2023-03-01T22:06:23.081Z,57.95
2023-03-01T22:11:28.583Z,58.08
2023-03-01T22:16:36.212Z,58.48
2023-03-01T22:21:44.742Z,58.32
2023-03-01T22:26:50.006Z,58.53
2023-03-01T22:31:54.888Z,58.58
2023-03-01T22:36:58.792Z,58.43
2023-03-01T22:42:02.184Z,58.63
2023-03-01T22:47:05.772Z,58.76
2023-03-01T22:52:09.125Z,58.85
2023-03-01T22:57:12.352Z,58.98
2023-03-01T23:02:15.875Z,58.83
2023-03-01T23:07:19.184Z,58.89
2023-03-01T23:12:22.285Z,58.90
2023-03-01T23:17:25.565Z,58.83
2023-03-01T23:22:30.813Z,59.20
2023-03-01T23:27:37.182Z,59.45
2023-03-01T23:32:41.082Z,59.19
2023-03-01T23:37:45.757Z,59.44
2023-03-01T23:42:48.895Z,59.58
2023-03-01T23:47:52.378Z,59.52
2023-03-01T23:52:55.649Z,59.51
2023-03-01T23:57:58.961Z,59.62
